Time;durP1;ratioP1;P1;durP2;ratioP2;P2;SDS_P1;SDS_P2;PMS_P1;PMS_P2;Temp;Humidity;BMP_temperature;BMP_pressure;BME280_temperature;BME280_humidity;BME280_pressure;Samples;Min_cycle;Max_cycle;Signal;HPM_P1;HPM_P2
2022/03/27 00:01:56;;;;;;;34.75;21.58;;;;;;;9.51;60.49;102641.75;5073418;28;20033;-43
2022/03/27 00:04:22;;;;;;;34.72;22.58;;;;;;;9.59;60.22;102658.03;5073340;28;20029;-45
2022/03/27 00:06:47;;;;;;;31.20;20.13;;;;;;;9.55;59.68;102658.44;5072117;28;20043;-45
2022/03/27 00:09:13;;;;;;;27.02;18.58;;;;;;;9.40;60.14;102649.88;5073410;28;20086;-44
2022/03/27 00:11:39;;;;;;;23.33;17.15;;;;;;;9.33;59.97;102654.91;5073501;28;20040;-41
2022/03/27 00:14:05;;;;;;;39.55;23.10;;;;;;;9.01;61.23;102647.78;5073549;28;20048;-42
2022/03/27 00:16:32;;;;;;;43.58;22.90;;;;;;;8.93;62.04;102652.91;5072234;28;20401;-43
2022/03/27 00:18:59;;;;;;;37.35;23.95;;;;;;;9.04;61.54;102652.03;5077136;28;20033;-41
2022/03/27 00:21:24;;;;;;;37.05;22.30;;;;;;;8.95;61.17;102636.72;5077094;28;20035;-40
2022/03/27 00:23:52;;;;;;;32.35;20.38;;;;;;;9.00;60.17;102651.41;5077335;28;20028;-43
2022/03/27 00:26:19;;;;;;;30.42;20.08;;;;;;;9.01;60.74;102653.13;5075700;28;20063;-42
2022/03/27 00:28:46;;;;;;;36.28;21.85;;;;;;;9.08;60.57;102650.78;5077342;28;20111;-41
2022/03/27 00:31:12;;;;;;;33.13;22.23;;;;;;;9.04;60.63;102658.22;5059654;28;20027;-42
2022/03/27 00:33:40;;;;;;;34.13;22.63;;;;;;;8.98;60.85;102661.44;5076966;28;20040;-41
2022/03/27 00:36:08;;;;;;;30.10;20.77;;;;;;;8.97;61.19;102658.88;5076875;28;20021;-41
2022/03/27 00:38:34;;;;;;;35.65;22.45;;;;;;;8.88;61.31;102649.78;5077289;28;20035;-40
2022/03/27 00:41:01;;;;;;;29.67;19.95;;;;;;;8.77;61.27;102650.69;5077111;28;20028;-41
2022/03/27 00:43:27;;;;;;;29.77;20.08;;;;;;;8.64;61.37;102655.38;5077209;28;20376;-41
2022/03/27 00:45:54;;;;;;;34.50;21.55;;;;;;;8.68;61.34;102660.31;5076759;28;20427;-41
2022/03/27 00:48:21;;;;;;;35.40;22.95;;;;;;;8.74;61.31;102650.94;5076614;28;20449;-41
2022/03/27 00:50:48;;;;;;;32.45;21.08;;;;;;;8.62;61.63;102651.97;5075564;28;20039;-43
2022/03/27 00:53:15;;;;;;;34.55;21.58;;;;;;;8.59;61.25;102646.84;5076977;28;20025;-41
2022/03/27 00:55:41;;;;;;;27.25;19.67;;;;;;;8.58;61.45;102650.50;5076213;28;20048;-42
2022/03/27 00:58:08;;;;;;;32.75;21.63;;;;;;;8.47;61.57;102656.75;5076640;28;20035;-42
2022/03/27 01:00:48;;;;;;;33.63;20.35;;;;;;;8.25;63.24;102650.44;5076554;28;20041;-42
2022/03/27 01:03:17;;;;;;;34.85;22.73;;;;;;;8.18;62.36;102643.88;5076599;28;20028;-41
2022/03/27 01:05:44;;;;;;;36.50;21.75;;;;;;;8.22;62.55;102656.03;5075183;28;20135;-43
2022/03/27 01:08:12;;;;;;;36.40;22.55;;;;;;;8.29;62.93;102654.56;5076165;28;20384;-42
2022/03/27 01:10:39;;;;;;;34.35;21.98;;;;;;;8.27;61.91;102653.84;5076197;28;20530;-43
2022/03/27 01:13:10;;;;;;;34.05;21.08;;;;;;;8.34;62.05;102651.53;5076156;28;20024;-42
2022/03/27 01:15:41;;;;;;;35.38;22.15;;;;;;;8.31;62.05;102647.25;5076392;28;20032;-42
2022/03/27 01:18:07;;;;;;;33.55;21.25;;;;;;;8.34;62.61;102649.69;5076374;28;20676;-42
2022/03/27 01:20:35;;;;;;;29.83;20.65;;;;;;;8.27;61.98;102651.16;5076338;28;20294;-41
2022/03/27 01:23:07;;;;;;;27.70;19.08;;;;;;;8.10;62.25;102635.63;5076574;28;20052;-43
2022/03/27 01:25:33;;;;;;;29.05;18.75;;;;;;;8.11;62.25;102656.03;5076410;28;20031;-43
2022/03/27 01:27:59;;;;;;;33.70;20.33;;;;;;;7.95;63.11;102648.41;5075983;28;20032;-43
2022/03/27 01:30:25;;;;;;;32.03;19.50;;;;;;;7.91;62.45;102644.25;5075032;28;20064;-41
2022/03/27 01:32:53;;;;;;;29.25;18.50;;;;;;;7.89;62.38;102640.84;5076178;28;20060;-43
2022/03/27 01:35:19;;;;;;;35.28;21.42;;;;;;;7.76;63.05;102640.97;5074476;28;20170;-41
2022/03/27 01:37:46;;;;;;;32.65;21.45;;;;;;;7.82;63.74;102643.19;5076039;28;20115;-41
2022/03/27 01:40:13;;;;;;;28.55;18.98;;;;;;;7.76;63.46;102643.63;5076014;28;20024;-40
2022/03/27 01:42:39;;;;;;;33.97;22.35;;;;;;;7.63;63.91;102637.56;5075786;28;20396;-42
2022/03/27 01:45:06;;;;;;;33.03;22.77;;;;;;;7.61;63.90;102631.50;5074437;28;20032;-41
2022/03/27 01:47:32;;;;;;;37.00;23.30;;;;;;;7.56;64.43;102622.00;5075486;28;20029;-39
2022/03/27 01:49:58;;;;;;;35.63;22.75;;;;;;;7.57;63.41;102637.06;5075805;28;20478;-39
2022/03/27 01:52:24;;;;;;;35.65;23.20;;;;;;;7.49;64.46;102630.63;5075019;28;20032;-41
2022/03/27 01:54:49;;;;;;;31.08;20.42;;;;;;;7.42;63.52;102621.38;5074684;28;20028;-42
2022/03/27 01:57:15;;;;;;;33.50;21.00;;;;;;;7.39;63.50;102616.28;5058127;28;20429;-42
2022/03/27 01:59:41;;;;;;;28.08;20.15;;;;;;;7.38;64.12;102625.28;5074164;28;20380;-40
2022/03/27 02:02:07;;;;;;;30.80;22.05;;;;;;;7.21;64.21;102607.88;5075539;28;20055;-40
2022/03/27 02:04:32;;;;;;;34.38;21.30;;;;;;;7.27;64.28;102626.09;5075522;28;20476;-41
2022/03/27 02:06:59;;;;;;;34.95;22.00;;;;;;;7.17;64.82;102602.75;5075468;28;20453;-41
2022/03/27 02:09:24;;;;;;;42.35;23.45;;;;;;;7.09;65.05;102617.66;5075488;28;20032;-41
2022/03/27 02:11:50;;;;;;;41.92;23.95;;;;;;;7.12;65.84;102610.28;5090961;28;20024;-42
2022/03/27 02:14:16;;;;;;;41.35;24.45;;;;;;;7.06;64.78;102608.09;5074891;28;20500;-41
2022/03/27 02:16:42;;;;;;;34.53;22.08;;;;;;;7.11;64.59;102613.06;5074126;28;20116;-41
2022/03/27 02:19:10;;;;;;;34.80;22.90;;;;;;;7.09;64.41;102612.31;5075242;28;20553;-42
2022/03/27 02:21:38;;;;;;;36.40;22.05;;;;;;;7.11;64.01;102611.25;5074199;28;20469;-43
2022/03/27 02:24:04;;;;;;;35.22;22.75;;;;;;;7.04;64.59;102598.47;5076017;28;20024;-41
2022/03/27 02:26:31;;;;;;;38.30;24.90;;;;;;;7.15;64.42;102609.16;5076066;28;20036;-42
2022/03/27 02:28:56;;;;;;;39.35;24.65;;;;;;;7.14;65.17;102603.00;5074872;28;20079;-40
2022/03/27 02:31:22;;;;;;;38.58;23.83;;;;;;;7.17;64.55;102597.41;5074002;28;20504;-42
2022/03/27 02:33:48;;;;;;;41.38;25.48;;;;;;;7.20;64.38;102599.00;5075252;28;20035;-40
2022/03/27 02:36:16;;;;;;;40.05;23.65;;;;;;;7.14;64.75;102583.44;5074049;28;20052;-40
2022/03/27 02:38:42;;;;;;;41.05;24.80;;;;;;;7.19;64.24;102594.63;5073260;28;20158;-40
2022/03/27 02:41:08;;;;;;;41.47;24.15;;;;;;;7.17;64.15;102592.06;5074153;28;20044;-40
2022/03/27 02:43:38;;;;;;;41.40;25.05;;;;;;;7.12;64.06;102586.22;5056841;28;20033;-40
2022/03/27 02:46:05;;;;;;;40.08;23.50;;;;;;;7.10;64.60;102593.50;5074518;28;20028;-42
2022/03/27 02:48:31;;;;;;;43.47;25.25;;;;;;;6.75;66.78;102588.19;5073440;28;20089;-40
2022/03/27 02:50:57;;;;;;;47.58;25.55;;;;;;;6.90;65.89;102607.53;5075031;28;20024;-41
2022/03/27 02:53:23;;;;;;;42.15;25.02;;;;;;;6.90;66.32;102604.88;5075020;28;20024;-42
2022/03/27 02:55:49;;;;;;;42.58;24.55;;;;;;;6.92;65.46;102600.25;5074354;28;20040;-41
2022/03/27 02:58:16;;;;;;;40.45;24.83;;;;;;;6.95;65.50;102608.06;5073700;28;20047;-42
2022/03/27 03:00:42;;;;;;;41.35;24.38;;;;;;;6.84;65.87;102590.16;5074591;28;20024;-43
2022/03/27 03:03:09;;;;;;;42.97;24.98;;;;;;;6.83;66.70;102603.63;5074740;28;20032;-47
2022/03/27 03:05:38;;;;;;;38.50;23.40;;;;;;;6.85;65.97;102597.19;5074388;28;20354;-42
2022/03/27 03:08:06;;;;;;;36.75;23.60;;;;;;;6.82;65.56;102601.94;5073992;28;20384;-43
2022/03/27 03:10:33;;;;;;;45.65;24.58;;;;;;;6.75;66.48;102591.72;5074219;28;20093;-42
2022/03/27 03:12:59;;;;;;;40.10;23.70;;;;;;;6.68;66.42;102585.13;5073518;28;20036;-41
2022/03/27 03:15:26;;;;;;;38.75;23.65;;;;;;;6.68;67.13;102593.13;5074429;28;20473;-44
2022/03/27 03:17:52;;;;;;;44.95;24.67;;;;;;;6.59;66.51;102570.66;5073967;28;20028;-43
2022/03/27 03:20:19;;;;;;;34.55;23.80;;;;;;;6.63;66.58;102591.78;5074187;28;20024;-43
2022/03/27 03:22:45;;;;;;;40.78;24.65;;;;;;;6.66;67.18;102591.56;5073976;28;20028;-42
2022/03/27 03:25:11;;;;;;;44.45;23.20;;;;;;;6.65;66.74;102592.50;5075012;28;20025;-43
2022/03/27 03:27:37;;;;;;;36.95;21.88;;;;;;;6.65;65.96;102587.16;5073264;28;20050;-42
2022/03/27 03:30:04;;;;;;;38.08;22.13;;;;;;;6.55;66.75;102571.84;5074348;28;20032;-42
2022/03/27 03:32:31;;;;;;;44.13;23.92;;;;;;;6.63;66.22;102584.63;5074157;28;20035;-42
2022/03/27 03:34:57;;;;;;;39.88;23.70;;;;;;;6.56;66.53;102573.56;5074567;28;20083;-43
2022/03/27 03:37:23;;;;;;;38.35;23.58;;;;;;;6.59;66.59;102585.81;5073912;28;20477;-42
2022/03/27 03:39:49;;;;;;;37.22;24.02;;;;;;;6.65;67.03;102582.72;5074561;28;20548;-42
2022/03/27 03:42:15;;;;;;;39.80;22.15;;;;;;;6.71;66.33;102587.56;5074553;28;20044;-42
2022/03/27 03:44:41;;;;;;;35.85;22.00;;;;;;;6.76;66.54;102590.75;5075757;28;20051;-46
2022/03/27 03:47:07;;;;;;;38.55;23.50;;;;;;;6.71;65.99;102586.72;5073666;28;20043;-43
2022/03/27 03:49:33;;;;;;;38.75;22.13;;;;;;;6.68;66.05;102590.47;5073971;28;20055;-43
2022/03/27 03:51:59;;;;;;;45.28;25.13;;;;;;;6.61;67.00;102589.22;5073498;28;20079;-42
2022/03/27 03:54:25;;;;;;;39.70;23.20;;;;;;;6.59;66.24;102589.34;5074828;28;20020;-42
2022/03/27 03:56:51;;;;;;;39.38;23.58;;;;;;;6.57;66.54;102580.63;5073852;28;20041;-41
2022/03/27 03:59:18;;;;;;;38.15;23.23;;;;;;;6.55;66.26;102584.34;5072301;28;20441;-42
2022/03/27 04:01:43;;;;;;;39.00;24.13;;;;;;;6.47;66.61;102573.41;5073203;28;20063;-42
2022/03/27 04:04:09;;;;;;;39.78;22.52;;;;;;;6.46;66.06;102577.88;5072272;28;20384;-42
2022/03/27 04:06:35;;;;;;;35.10;21.25;;;;;;;6.45;66.08;102586.00;5073515;28;20116;-41
2022/03/27 04:09:01;;;;;;;36.78;20.73;;;;;;;6.32;67.60;102586.91;5072360;28;20040;-41
2022/03/27 04:11:27;;;;;;;38.92;22.77;;;;;;;6.07;69.47;102563.00;5073850;28;20028;-43
2022/03/27 04:13:52;;;;;;;35.08;22.20;;;;;;;6.37;67.81;102586.56;5072670;28;20031;-41
2022/03/27 04:16:18;;;;;;;39.97;23.95;;;;;;;6.54;67.80;102585.34;5073781;28;20047;-42
2022/03/27 04:18:44;;;;;;;42.00;24.20;;;;;;;6.67;66.83;102579.94;5073684;28;20096;-42
2022/03/27 04:21:10;;;;;;;39.47;23.63;;;;;;;6.40;68.05;102581.84;5073407;28;20025;-42
2022/03/27 04:23:36;;;;;;;41.83;24.17;;;;;;;5.90;69.67;102545.53;5073345;28;20036;-44
2022/03/27 04:26:03;;;;;;;40.20;23.05;;;;;;;6.06;69.77;102567.50;5073068;28;20025;-43
2022/03/27 04:28:29;;;;;;;40.55;24.08;;;;;;;6.03;70.17;102580.19;5072037;28;20044;-44
2022/03/27 04:30:55;;;;;;;43.28;25.38;;;;;;;5.98;70.69;102577.84;5088800;28;20449;-42
2022/03/27 04:33:21;;;;;;;40.53;24.88;;;;;;;5.88;71.57;102566.97;5073482;28;20085;-44
2022/03/27 04:35:47;;;;;;;40.35;23.63;;;;;;;6.26;69.59;102579.38;5072240;28;20021;-42
2022/03/27 04:38:13;;;;;;;42.70;23.63;;;;;;;6.49;69.08;102579.47;5073794;28;20424;-42
2022/03/27 04:40:39;;;;;;;45.55;25.20;;;;;;;6.68;68.64;102584.28;5073949;28;20037;-41
2022/03/27 04:43:06;;;;;;;52.03;24.98;;;;;;;6.68;69.79;102563.75;5073146;28;20081;-41
2022/03/27 04:45:32;;;;;;;40.80;22.02;;;;;;;6.85;67.86;102581.16;5072036;28;20024;-40
2022/03/27 04:47:57;;;;;;;43.75;22.33;;;;;;;6.76;69.87;102574.72;5071978;28;20036;-42
2022/03/27 04:50:23;;;;;;;51.40;26.92;;;;;;;6.63;71.57;102575.75;5073024;28;20139;-41
2022/03/27 04:52:49;;;;;;;51.95;25.58;;;;;;;6.81;70.26;102579.72;5072079;28;20031;-46
2022/03/27 04:55:15;;;;;;;63.38;25.38;;;;;;;6.90;69.95;102571.00;5072784;28;20504;-42
2022/03/27 04:57:41;;;;;;;46.03;25.25;;;;;;;6.94;69.51;102561.78;5073378;28;20032;-40
2022/03/27 05:00:11;;;;;;;65.40;26.17;;;;;;;6.97;70.04;102576.72;5073299;28;20467;-43
2022/03/27 05:02:38;;;;;;;62.78;24.58;;;;;;;6.92;71.10;102568.22;5071503;28;20029;-40
2022/03/27 05:05:05;;;;;;;80.63;25.40;;;;;;;6.94;69.87;102574.28;5076481;28;20031;-42
2022/03/27 05:07:31;;;;;;;53.42;23.42;;;;;;;7.02;70.89;102584.38;5075477;28;19919;-41
2022/03/27 05:09:57;;;;;;;98.50;23.17;;;;;;;6.99;71.36;102574.78;5076365;28;20104;-41
2022/03/27 05:12:22;;;;;;;177.85;22.23;;;;;;;6.96;71.47;102591.03;5075458;28;20039;-41
2022/03/27 05:14:48;;;;;;;72.53;20.60;;;;;;;6.91;72.69;102582.53;5076699;28;20119;-42
2022/03/27 05:17:14;;;;;;;113.88;18.15;;;;;;;6.88;72.27;102580.09;5076405;28;20033;-42
2022/03/27 05:19:41;;;;;;;158.80;18.83;;;;;;;6.90;71.89;102592.38;5076626;28;20035;-45
2022/03/27 05:22:07;;;;;;;134.23;16.33;;;;;;;6.59;73.13;102557.31;5076159;28;20028;-43
2022/03/27 05:24:34;;;;;;;70.47;18.63;;;;;;;6.52;75.21;102574.75;5076424;28;20368;-44
2022/03/27 05:27:00;;;;;;;151.05;18.23;;;;;;;6.62;75.30;102593.59;5076676;28;20044;-42
2022/03/27 05:29:26;;;;;;;183.55;17.70;;;;;;;6.53;75.50;102595.13;5076881;28;20028;-40
2022/03/27 05:31:52;;;;;;;191.85;18.65;;;;;;;6.38;76.20;102594.44;5076881;28;20101;-40
2022/03/27 05:34:18;;;;;;;150.68;17.23;;;;;;;6.29;76.91;102578.28;5074786;28;20372;-42
2022/03/27 05:36:45;;;;;;;48.05;15.52;;;;;;;6.26;77.94;102590.03;5076257;28;20461;-41
2022/03/27 05:39:12;;;;;;;219.93;19.35;;;;;;;6.15;78.01;102579.31;5076216;28;20033;-41
2022/03/27 05:41:37;;;;;;;33.03;16.38;;;;;;;6.26;78.83;102589.16;5076206;28;20063;-41
2022/03/27 05:44:04;;;;;;;100.03;16.52;;;;;;;6.30;77.83;102585.34;5076081;28;20067;-41
2022/03/27 05:46:29;;;;;;;97.38;17.27;;;;;;;6.17;78.44;102567.56;5075574;28;20033;-41
2022/03/27 05:48:55;;;;;;;165.82;19.23;;;;;;;6.19;78.26;102584.28;5075607;28;20376;-41
2022/03/27 05:51:21;;;;;;;118.03;17.83;;;;;;;6.27;78.07;102585.56;5076270;28;20035;-42
2022/03/27 05:53:46;;;;;;;108.40;19.02;;;;;;;6.17;79.07;102591.56;5076031;28;20107;-41
2022/03/27 05:56:12;;;;;;;230.02;20.50;;;;;;;5.87;80.53;102583.06;5075874;28;20041;-42
2022/03/27 05:58:38;;;;;;;140.95;18.25;;;;;;;5.98;79.41;102593.84;5076118;28;20032;-42
2022/03/27 06:01:05;;;;;;;85.85;18.60;;;;;;;6.09;80.42;102598.41;5075916;28;20025;-42
2022/03/27 06:03:30;;;;;;;60.65;18.45;;;;;;;6.17;79.53;102594.22;5075883;28;20472;-42
2022/03/27 06:05:56;;;;;;;242.32;19.65;;;;;;;6.09;78.54;102577.06;5074540;28;20037;-42
2022/03/27 06:08:22;;;;;;;53.83;16.90;;;;;;;6.27;79.24;102594.41;5075444;28;20107;-41
2022/03/27 06:10:49;;;;;;;165.93;17.80;;;;;;;6.40;77.96;102597.84;5075658;28;20484;-43
2022/03/27 06:13:16;;;;;;;41.42;17.65;;;;;;;6.42;78.65;102586.22;5075681;28;20035;-43
2022/03/27 06:15:42;;;;;;;40.80;17.88;;;;;;;6.45;78.55;102610.88;5073344;28;20059;-41
2022/03/27 06:18:10;;;;;;;49.35;16.13;;;;;;;6.33;78.35;102591.31;5075396;28;20028;-42
2022/03/27 06:20:37;;;;;;;55.67;14.93;;;;;;;6.22;77.96;102580.53;5075406;28;20096;-42
2022/03/27 06:23:03;;;;;;;42.40;13.95;;;;;;;6.48;78.45;102610.66;5075695;28;20424;-42
2022/03/27 06:25:30;;;;;;;62.70;14.27;;;;;;;6.29;78.72;102613.81;5075433;28;20060;-42
2022/03/27 06:27:57;;;;;;;38.80;13.20;;;;;;;6.48;78.30;102613.34;5075443;28;20058;-41
2022/03/27 06:30:26;;;;;;;34.00;14.10;;;;;;;6.50;78.32;102621.19;5076167;28;20532;-41
2022/03/27 06:32:52;;;;;;;48.60;11.27;;;;;;;6.66;76.78;102615.59;5075874;28;20101;-41
2022/03/27 06:35:19;;;;;;;72.25;12.50;;;;;;;6.73;76.37;102614.16;5074966;28;20473;-41
2022/03/27 06:37:46;;;;;;;43.00;12.43;;;;;;;6.71;76.42;102610.75;5074912;28;20051;-41
2022/03/27 06:40:13;;;;;;;22.13;12.02;;;;;;;6.84;77.24;102614.19;5075376;28;20039;-41
2022/03/27 06:42:41;;;;;;;22.70;11.13;;;;;;;6.84;76.52;102613.38;5075092;28;20031;-41
2022/03/27 06:45:07;;;;;;;23.20;11.70;;;;;;;6.81;77.36;102609.09;5074920;28;20055;-41
2022/03/27 06:47:34;;;;;;;43.42;11.57;;;;;;;6.76;76.26;102612.13;5073409;28;20033;-41
2022/03/27 06:50:02;;;;;;;27.80;11.40;;;;;;;6.72;77.23;102610.66;5075198;28;20472;-40
2022/03/27 06:52:28;;;;;;;33.88;9.60;;;;;;;6.83;76.64;102619.66;5074994;28;20028;-41
2022/03/27 06:54:55;;;;;;;13.55;10.07;;;;;;;6.93;76.33;102610.84;5074173;28;20135;-41
2022/03/27 06:57:21;;;;;;;16.98;9.90;;;;;;;6.89;76.80;102612.03;5075001;28;20082;-41
2022/03/27 07:05:22;;;;;;;22.67;8.85;;;;;;;7.26;74.33;102603.00;5087175;28;20036;-40
2022/03/27 07:07:48;;;;;;;10.27;8.32;;;;;;;7.23;74.66;102592.56;5074116;28;20086;-41
2022/03/27 07:10:14;;;;;;;22.20;10.82;;;;;;;7.17;76.10;102597.41;5089929;28;20083;-41
2022/03/27 07:12:39;;;;;;;12.68;9.85;;;;;;;7.35;75.32;102586.25;5074485;28;20041;-41
2022/03/27 07:15:07;;;;;;;11.00;9.38;;;;;;;7.54;74.33;102593.66;5072921;28;20166;-42
2022/03/27 07:17:33;;;;;;;13.13;10.45;;;;;;;7.60;74.08;102603.06;5074484;28;20028;-41
2022/03/27 07:19:59;;;;;;;15.65;9.98;;;;;;;7.50;74.33;102594.88;5074041;28;20089;-41
2022/03/27 07:22:25;;;;;;;17.70;10.18;;;;;;;7.51;73.56;102594.78;5074331;28;20420;-47
2022/03/27 07:24:51;;;;;;;12.68;9.43;;;;;;;7.40;74.75;102584.06;5073379;28;20029;-41
2022/03/27 07:27:16;;;;;;;10.98;8.98;;;;;;;7.28;75.21;102591.25;5073720;28;20051;-40
2022/03/27 07:29:42;;;;;;;8.90;8.00;;;;;;;7.35;75.92;102595.16;5056240;28;20037;-42
2022/03/27 07:32:11;;;;;;;8.65;7.70;;;;;;;7.33;76.33;102583.69;5072991;28;20051;-42
2022/03/27 07:34:36;;;;;;;10.32;8.38;;;;;;;7.43;76.28;102586.53;5072802;28;20090;-43
2022/03/27 07:37:03;;;;;;;8.70;7.80;;;;;;;7.65;75.14;102587.47;5074148;28;20028;-42
2022/03/27 07:39:30;;;;;;;8.52;7.60;;;;;;;7.84;74.61;102597.59;5074107;28;20040;-42
2022/03/27 07:41:55;;;;;;;9.05;7.70;;;;;;;7.91;73.80;102588.94;5089360;28;20033;-42
2022/03/27 07:44:21;;;;;;;8.57;7.68;;;;;;;7.85;75.17;102592.09;5074353;28;20101;-43
2022/03/27 07:46:49;;;;;;;8.88;8.10;;;;;;;7.82;74.57;102576.31;5072615;28;20473;-41
2022/03/27 07:49:16;;;;;;;10.20;8.82;;;;;;;7.94;74.63;102596.69;5072575;28;20032;-41
2022/03/27 07:51:42;;;;;;;15.15;7.60;;;;;;;8.04;74.00;102594.16;5074019;28;20376;-41
2022/03/27 07:54:08;;;;;;;23.30;8.40;;;;;;;7.98;74.21;102594.63;5073855;28;20032;-41
2022/03/27 07:56:34;;;;;;;41.55;10.13;;;;;;;7.99;74.48;102595.50;5073758;28;20055;-41
2022/03/27 07:59:00;;;;;;;33.30;10.55;;;;;;;7.98;75.28;102597.31;5072631;28;20097;-42
2022/03/27 08:01:27;;;;;;;35.97;9.80;;;;;;;8.09;74.34;102599.97;5072282;28;20064;-41
2022/03/27 08:03:56;;;;;;;28.95;9.32;;;;;;;7.92;75.36;102587.09;5073825;28;20060;-41
2022/03/27 08:06:23;;;;;;;30.65;9.50;;;;;;;8.06;75.30;102586.84;5073331;28;20041;-41
2022/03/27 08:08:49;;;;;;;69.75;10.00;;;;;;;8.02;74.88;102604.09;5073606;28;20211;-41
2022/03/27 08:11:15;;;;;;;27.52;8.93;;;;;;;8.11;75.30;102600.69;5072669;28;20059;-42
2022/03/27 08:13:41;;;;;;;73.00;10.25;;;;;;;8.14;75.29;102604.94;5089255;28;20058;-41
2022/03/27 08:16:07;;;;;;;13.30;9.23;;;;;;;8.24;75.14;102600.53;5074559;28;20480;-42
2022/03/27 08:18:33;;;;;;;23.20;10.68;;;;;;;8.34;74.23;102590.78;5089591;28;20117;-42
2022/03/27 08:20:59;;;;;;;19.98;10.80;;;;;;;8.51;73.88;102602.81;5072180;28;20032;-42
2022/03/27 08:23:25;;;;;;;59.00;10.15;;;;;;;8.57;73.18;102590.72;5073526;28;20033;-43
2022/03/27 08:28:36;;;;;;;151.23;11.18;;;;;;;8.33;74.05;102586.38;5072543;28;20048;-44
2022/03/27 08:31:02;;;;;;;24.52;11.25;;;;;;;8.28;75.50;102588.63;5073519;28;20028;-42
2022/03/27 08:33:28;;;;;;;107.03;11.27;;;;;;;8.28;75.64;102590.44;5071952;28;20060;-42
2022/03/27 08:35:54;;;;;;;46.33;11.68;;;;;;;8.30;75.44;102597.38;5073191;28;20041;-41
2022/03/27 08:38:20;;;;;;;21.95;11.05;;;;;;;8.45;76.33;102607.81;5074455;28;20028;-42
2022/03/27 08:40:47;;;;;;;21.92;11.63;;;;;;;8.57;74.95;102587.22;5077471;28;20028;-41
2022/03/27 08:43:15;;;;;;;82.97;10.90;;;;;;;8.49;75.84;102599.41;5077745;28;20028;-41
2022/03/27 08:45:43;;;;;;;37.28;11.93;;;;;;;8.52;75.90;102591.13;5077091;28;20029;-41
2022/03/27 08:48:10;;;;;;;108.05;11.52;;;;;;;8.61;75.05;102591.34;5059402;28;20404;-42
2022/03/27 08:51:02;;;;;;;53.50;11.57;;;;;;;8.74;74.35;102591.16;5077769;28;20122;-41
2022/03/27 08:53:31;;;;;;;17.90;11.73;;;;;;;8.88;74.30;102593.53;5076569;28;20024;-41
2022/03/27 08:56:02;;;;;;;27.05;11.90;;;;;;;9.08;73.57;102600.72;5075408;28;20033;-43
2022/03/27 08:58:38;;;;;;;16.83;11.50;;;;;;;9.14;73.16;102583.25;5076902;28;20033;-41
2022/03/27 09:01:05;;;;;;;48.67;11.10;;;;;;;9.16;73.52;102600.06;5077053;28;20428;-42
2022/03/27 09:03:31;;;;;;;44.65;11.88;;;;;;;9.15;73.11;102582.25;5076754;28;20107;-42
2022/03/27 09:05:57;;;;;;;55.80;12.10;;;;;;;8.97;75.24;102584.72;5077498;28;20032;-41
2022/03/27 09:08:24;;;;;;;21.83;11.88;;;;;;;9.00;75.16;102576.38;5076625;28;20037;-42
2022/03/27 09:10:49;;;;;;;81.68;11.48;;;;;;;9.15;74.23;102589.47;5092393;28;20111;-41
2022/03/27 09:13:17;;;;;;;45.80;12.05;;;;;;;9.19;74.31;102588.22;5076465;28;20048;-42
2022/03/27 09:15:44;;;;;;;26.13;11.40;;;;;;;9.22;75.06;102586.13;5076734;28;20063;-41
2022/03/27 09:18:13;;;;;;;51.78;11.32;;;;;;;9.48;73.53;102580.31;5076516;28;20472;-42
2022/03/27 09:20:44;;;;;;;22.50;12.68;;;;;;;9.49;74.31;102587.41;5042547;28;20028;-41
2022/03/27 09:23:14;;;;;;;36.05;12.35;;;;;;;9.54;73.97;102585.13;5076576;28;20033;-42
2022/03/27 09:26:00;;;;;;;23.67;12.60;;;;;;;9.60;74.07;102583.75;5075310;28;20028;-42
2022/03/27 09:28:44;;;;;;;14.93;11.10;;;;;;;9.71;73.31;102582.81;5075687;28;20047;-42
2022/03/27 09:31:22;;;;;;;27.23;11.98;;;;;;;9.67;73.12;102580.41;5074978;28;20040;-42
2022/03/27 09:33:51;;;;;;;61.28;12.65;;;;;;;9.28;73.96;102568.66;5075903;28;20024;-41
2022/03/27 09:36:23;;;;;;;24.85;12.65;;;;;;;9.13;76.15;102578.03;5075652;28;20369;-41
2022/03/27 09:39:02;;;;;;;18.35;12.80;;;;;;;9.39;75.13;102573.91;5076438;28;20059;-41
2022/03/27 09:41:33;;;;;;;26.83;11.80;;;;;;;9.48;73.92;102570.44;5076087;28;20123;-42
2022/03/27 09:44:01;;;;;;;19.00;11.48;;;;;;;9.55;74.51;102580.66;5076059;28;20029;-43
2022/03/27 09:46:28;;;;;;;15.13;10.57;;;;;;;9.76;74.19;102569.84;5075619;28;20032;-42
2022/03/27 09:48:56;;;;;;;14.45;10.45;;;;;;;9.78;74.10;102576.75;5074681;28;20038;-42
2022/03/27 09:51:22;;;;;;;20.20;11.60;;;;;;;9.60;74.77;102573.91;5074803;28;20039;-42
2022/03/27 09:53:58;;;;;;;17.27;11.07;;;;;;;9.65;73.73;102576.16;5076642;28;20028;-44
2022/03/27 09:56:29;;;;;;;18.48;12.02;;;;;;;9.54;75.04;102570.88;5076768;28;20040;-43
2022/03/27 09:58:55;;;;;;;16.65;12.02;;;;;;;9.55;75.75;102575.28;5076726;28;20047;-43
2022/03/27 10:01:24;;;;;;;19.50;12.88;;;;;;;9.66;74.94;102565.28;5076647;28;20037;-42
2022/03/27 10:04:10;;;;;;;18.23;13.05;;;;;;;9.64;74.67;102569.94;5075832;28;20120;-42
2022/03/27 10:06:38;;;;;;;17.10;11.93;;;;;;;9.73;74.50;102559.38;5076301;28;20442;-44
2022/03/27 10:09:06;;;;;;;16.40;11.30;;;;;;;9.83;73.76;102562.94;5091578;28;20031;-42
2022/03/27 10:11:34;;;;;;;11.95;9.57;;;;;;;9.73;74.39;102565.59;5076302;28;20083;-42
2022/03/27 10:14:00;;;;;;;11.73;9.93;;;;;;;9.65;75.15;102552.84;5091619;28;20032;-46
2022/03/27 10:16:29;;;;;;;14.32;10.90;;;;;;;9.60;74.84;102557.81;5075697;28;20032;-45
2022/03/27 10:18:59;;;;;;;15.43;10.70;;;;;;;9.61;74.67;102562.16;5075784;28;20127;-45
2022/03/27 10:21:26;;;;;;;12.85;9.48;;;;;;;9.62;75.81;102558.50;5074289;28;20448;-43
2022/03/27 10:24:00;;;;;;;14.93;11.45;;;;;;;9.76;75.35;102556.44;5074733;28;20059;-43
2022/03/27 10:26:26;;;;;;;16.65;11.90;;;;;;;9.89;74.99;102543.59;5075684;28;20040;-42
2022/03/27 10:28:53;;;;;;;25.83;16.85;;;;;;;10.05;74.01;102537.72;5075443;28;20536;-44
2022/03/27 10:31:23;;;;;;;20.65;15.50;;;;;;;10.25;73.55;102541.25;5075535;28;20037;-47
2022/03/27 10:33:50;;;;;;;22.73;14.57;;;;;;;10.20;72.36;102543.53;5074021;28;20127;-45
2022/03/27 10:36:42;;;;;;;17.77;13.10;;;;;;;9.87;74.69;102543.75;5073774;28;20024;-43
2022/03/27 10:39:28;;;;;;;14.38;10.75;;;;;;;9.97;75.26;102538.38;5074498;28;20032;-42
2022/03/27 10:42:33;;;;;;;16.17;9.20;;;;;;;10.28;73.99;102538.28;5075005;28;20029;-42
2022/03/27 10:45:08;;;;;;;13.30;9.18;;;;;;;10.19;73.37;102528.41;5077411;28;20419;-44
2022/03/27 10:47:33;;;;;;;15.18;10.25;;;;;;;9.88;74.30;102534.72;5075169;28;20028;-43
2022/03/27 10:50:20;;;;;;;16.33;9.98;;;;;;;9.87;75.00;102535.69;5075311;28;20051;-45
2022/03/27 10:53:06;;;;;;;15.13;10.40;;;;;;;9.93;74.71;102536.13;5077196;28;20115;-42
2022/03/27 10:55:38;;;;;;;14.63;9.93;;;;;;;10.00;73.92;102518.50;5073163;28;20049;-43
2022/03/27 10:58:25;;;;;;;13.30;10.52;;;;;;;10.03;74.71;102534.31;5074807;28;20035;-42
2022/03/27 11:00:51;;;;;;;13.80;10.60;;;;;;;9.90;74.79;102539.94;5073536;28;20119;-43
2022/03/27 11:04:04;;;;;;;14.88;10.57;;;;;;;10.15;74.61;102537.72;5074503;28;20139;-42
2022/03/27 11:06:33;;;;;;;13.93;10.45;;;;;;;10.01;74.91;102537.16;5063380;28;20476;-42
2022/03/27 11:09:02;;;;;;;12.77;9.45;;;;;;;10.06;74.64;102525.97;5074230;28;20036;-43
2022/03/27 11:11:49;;;;;;;11.50;8.77;;;;;;;10.17;74.27;102536.59;5073293;28;20036;-42
2022/03/27 11:14:23;;;;;;;8.30;7.50;;;;;;;10.24;73.19;102539.56;5059486;28;20104;-42
2022/03/27 11:17:09;;;;;;;11.68;8.52;;;;;;;10.34;72.62;102528.84;5074315;28;20025;-42
2022/03/27 11:19:41;;;;;;;10.95;8.07;;;;;;;10.38;73.77;102532.94;5073220;28;20480;-42
2022/03/27 11:22:07;;;;;;;10.50;7.80;;;;;;;10.68;72.54;102526.59;5074398;28;20106;-44
2022/03/27 11:24:33;;;;;;;8.00;6.95;;;;;;;10.82;71.92;102530.66;5073952;28;20028;-43
2022/03/27 11:26:58;;;;;;;7.72;6.93;;;;;;;10.88;72.00;102531.91;5074178;28;20024;-41
2022/03/27 11:29:25;;;;;;;8.23;7.43;;;;;;;10.64;71.78;102533.22;5073109;28;20034;-41